createdAt,value
2018-12-12T00:00:13.061Z,100832.16
2018-12-12T00:01:18.693Z,100833.05
2018-12-12T00:02:24.303Z,100838.30
2018-12-12T00:03:29.997Z,100832.66
2018-12-12T00:04:35.646Z,100833.05
2018-12-12T00:05:41.510Z,100839.58
2018-12-12T00:06:47.265Z,100840.90
2018-12-12T00:07:52.915Z,100835.72
2018-12-12T00:08:58.538Z,100839.55
2018-12-12T00:10:03.500Z,100840.03
2018-12-12T00:11:09.161Z,100839.96
2018-12-12T00:12:14.820Z,100840.47
2018-12-12T00:13:20.472Z,100842.19
2018-12-12T00:14:26.087Z,100842.19
2018-12-12T00:15:31.196Z,100846.52
2018-12-12T00:16:36.814Z,100848.67
2018-12-12T00:17:42.213Z,100844.70
2018-12-12T00:18:47.808Z,100848.54
2018-12-12T00:19:53.452Z,100848.11
2018-12-12T00:20:59.161Z,100854.23
2018-12-12T00:22:04.117Z,100854.71
2018-12-12T00:23:09.810Z,100852.52
2018-12-12T00:24:15.436Z,100846.86
2018-12-12T00:25:21.089Z,100853.00
2018-12-12T00:26:26.716Z,100854.73
2018-12-12T00:27:32.376Z,100856.05
2018-12-12T00:28:38.008Z,100853.87
2018-12-12T00:29:43.649Z,100857.34
2018-12-12T00:30:49.325Z,100851.73
2018-12-12T00:31:54.995Z,100855.16
2018-12-12T00:33:00.666Z,100853.89
2018-12-12T00:34:06.576Z,100854.27
2018-12-12T00:35:12.203Z,100854.30
2018-12-12T00:36:17.988Z,100854.33
2018-12-12T00:37:23.606Z,100860.35
2018-12-12T00:38:29.235Z,100860.40
2018-12-12T00:39:34.897Z,100860.39
2018-12-12T00:40:40.606Z,100857.72
2018-12-12T00:41:46.263Z,100856.03
2018-12-12T00:42:51.916Z,100855.62
2018-12-12T00:43:57.527Z,100852.98
2018-12-12T00:45:03.136Z,100853.07
2018-12-12T00:46:08.805Z,100852.23
2018-12-12T00:47:14.312Z,100862.14
2018-12-12T00:48:20.132Z,100861.17
2018-12-12T00:49:25.778Z,100857.30
2018-12-12T00:50:31.428Z,100862.90
2018-12-12T00:51:36.814Z,100866.31
2018-12-12T00:52:42.481Z,100871.12
2018-12-12T00:53:48.148Z,100863.77
2018-12-12T00:54:53.545Z,100868.93
2018-12-12T00:55:59.211Z,100871.56
2018-12-12T00:57:04.834Z,100871.55
2018-12-12T00:58:10.473Z,100870.72
2018-12-12T00:59:16.058Z,100869.81
2018-12-12T01:00:21.960Z,100868.56
2018-12-12T01:01:27.641Z,100869.45
2018-12-12T01:02:33.237Z,100871.56
2018-12-12T01:03:38.873Z,100874.20
2018-12-12T01:04:44.563Z,100870.77
2018-12-12T01:05:50.213Z,100871.66
2018-12-12T01:06:55.882Z,100874.28
2018-12-12T01:08:01.480Z,100870.38
2018-12-12T01:09:06.139Z,100879.45
2018-12-12T01:10:11.815Z,100874.26
2018-12-12T01:11:22.450Z,100880.29
2018-12-12T01:12:28.278Z,100877.74
2018-12-12T01:13:34.216Z,100883.84
2018-12-12T01:14:39.839Z,100881.69
2018-12-12T01:15:45.540Z,100880.00
2018-12-12T01:16:50.905Z,100888.23
2018-12-12T01:17:56.544Z,100882.61
2018-12-12T01:19:02.187Z,100886.50
2018-12-12T01:20:07.123Z,100890.41
2018-12-12T01:21:13.290Z,100891.70
2018-12-12T01:22:19.313Z,100894.31
2018-12-12T01:23:24.958Z,100893.41
2018-12-12T01:24:30.611Z,100892.55
2018-12-12T01:25:36.528Z,100891.67
2018-12-12T01:26:42.142Z,100895.53
2018-12-12T01:27:47.428Z,100897.70
2018-12-12T01:28:53.023Z,100892.95
2018-12-12T01:29:58.654Z,100893.38
2018-12-12T01:31:04.279Z,100893.77
2018-12-12T01:32:09.926Z,100889.96
2018-12-12T01:33:15.542Z,100890.38
2018-12-12T01:34:21.175Z,100885.66
2018-12-12T01:35:26.820Z,100892.97
2018-12-12T01:36:32.434Z,100895.53
2018-12-12T01:37:38.060Z,100893.38
2018-12-12T01:38:43.673Z,100895.58
2018-12-12T01:39:49.328Z,100895.11
2018-12-12T01:40:55.125Z,100901.15
2018-12-12T01:42:00.724Z,100902.02
2018-12-12T01:43:06.479Z,100899.02
2018-12-12T01:44:12.116Z,100901.61
2018-12-12T01:45:17.741Z,100897.31
2018-12-12T01:46:23.384Z,100902.45
2018-12-12T01:47:28.999Z,100898.11
2018-12-12T01:48:34.594Z,100901.16
2018-12-12T01:49:40.195Z,100895.53
2018-12-12T01:50:45.844Z,100903.30
2018-12-12T01:51:51.473Z,100904.61
2018-12-12T01:52:57.166Z,100910.61
2018-12-12T01:54:02.857Z,100895.91
2018-12-12T01:55:08.479Z,100899.34
2018-12-12T01:56:14.151Z,100899.38
2018-12-12T01:57:19.823Z,100909.34
2018-12-12T01:58:25.437Z,100899.41
2018-12-12T01:59:31.082Z,100906.74
2018-12-12T02:00:36.393Z,100901.97
2018-12-12T02:01:41.014Z,100906.28
2018-12-12T02:02:45.599Z,100908.91
2018-12-12T02:03:50.209Z,100905.02
2018-12-12T02:04:54.844Z,100903.70
2018-12-12T02:05:59.503Z,100913.67
2018-12-12T02:07:05.176Z,100905.91
2018-12-12T02:08:10.556Z,100911.06
2018-12-12T02:09:16.525Z,100910.17
2018-12-12T02:10:22.869Z,100915.39
2018-12-12T02:11:28.546Z,100912.36
2018-12-12T02:12:34.153Z,100912.39
2018-12-12T02:13:39.759Z,100911.98
2018-12-12T02:14:45.429Z,100914.97
2018-12-12T02:15:50.855Z,100917.59
2018-12-12T02:16:56.498Z,100919.28
2018-12-12T02:18:02.102Z,100919.73
2018-12-12T02:19:07.507Z,100920.57
2018-12-12T02:20:12.781Z,100920.14
2018-12-12T02:21:18.427Z,100926.19
2018-12-12T02:22:24.453Z,100922.77
2018-12-12T02:23:30.073Z,100925.33
2018-12-12T02:24:35.761Z,100924.91
2018-12-12T02:25:41.443Z,100925.76
2018-12-12T02:26:47.106Z,100921.45
2018-12-12T02:27:52.765Z,100922.31
2018-12-12T02:28:58.432Z,100922.29
2018-12-12T02:30:03.685Z,100922.34
2018-12-12T02:31:09.323Z,100924.92
2018-12-12T02:32:14.971Z,100923.19
2018-12-12T02:33:20.578Z,100923.66
2018-12-12T02:34:26.216Z,100924.91
2018-12-12T02:35:31.941Z,100918.45
2018-12-12T02:36:37.875Z,100917.98
2018-12-12T02:37:43.562Z,100924.50
2018-12-12T02:38:49.202Z,100923.66
2018-12-12T02:39:54.833Z,100927.13
2018-12-12T02:41:00.462Z,100931.45
2018-12-12T02:42:05.793Z,100924.13
2018-12-12T02:43:11.457Z,100930.64
2018-12-12T02:44:17.109Z,100925.01
2018-12-12T02:45:22.776Z,100931.06
2018-12-12T02:46:28.517Z,100929.33
2018-12-12T02:47:34.118Z,100930.19
2018-12-12T02:48:39.784Z,100926.74
2018-12-12T02:49:45.463Z,100926.73
2018-12-12T02:50:51.239Z,100928.02
2018-12-12T02:51:56.879Z,100925.44
2018-12-12T02:53:02.491Z,100932.36
2018-12-12T02:54:08.181Z,100926.73
2018-12-12T02:55:13.825Z,100934.52
2018-12-12T02:56:19.470Z,100931.91
2018-12-12T02:57:25.111Z,100931.08
2018-12-12T02:58:30.798Z,100929.78
2018-12-12T02:59:36.418Z,100928.06
2018-12-12T03:00:42.081Z,100925.05
2018-12-12T03:01:47.725Z,100922.88
2018-12-12T03:02:53.329Z,100919.41
2018-12-12T03:03:59.133Z,100931.05
2018-12-12T03:05:04.052Z,100929.73
2018-12-12T03:06:09.722Z,100925.00
2018-12-12T03:07:15.385Z,100930.18
2018-12-12T03:08:21.002Z,100930.60
2018-12-12T03:09:26.656Z,100938.83
2018-12-12T03:10:31.938Z,100933.59
2018-12-12T03:11:37.535Z,100937.09
2018-12-12T03:12:43.193Z,100939.66
2018-12-12T03:13:48.824Z,100943.13
2018-12-12T03:14:54.484Z,100938.40
2018-12-12T03:16:00.106Z,100940.96
2018-12-12T03:17:05.740Z,100940.49
2018-12-12T03:18:11.548Z,100944.39
2018-12-12T03:19:17.159Z,100945.70
2018-12-12T03:20:22.839Z,100949.15
2018-12-12T03:21:29.428Z,100949.56
2018-12-12T03:22:35.025Z,100948.32
2018-12-12T03:23:40.668Z,100948.80
2018-12-12T03:24:46.304Z,100945.32
2018-12-12T03:25:51.949Z,100942.69
2018-12-12T03:26:57.549Z,100939.26
2018-12-12T03:28:03.188Z,100942.69
2018-12-12T03:29:08.854Z,100938.78
2018-12-12T03:30:14.508Z,100946.52
2018-12-12T03:31:20.582Z,100942.66
2018-12-12T03:32:26.983Z,100940.09
2018-12-12T03:33:32.628Z,100943.15
2018-12-12T03:34:38.232Z,100943.10
2018-12-12T03:35:43.866Z,100945.73
2018-12-12T03:36:49.472Z,100951.80
2018-12-12T03:37:55.187Z,100945.76
2018-12-12T03:39:00.780Z,100944.47
2018-12-12T03:40:05.547Z,100955.23
2018-12-12T03:41:11.140Z,100958.25
2018-12-12T03:42:16.396Z,100951.30
2018-12-12T03:43:21.652Z,100957.36
2018-12-12T03:44:27.265Z,100956.86
2018-12-12T03:45:32.559Z,100958.21
2018-12-12T03:46:38.153Z,100956.85
2018-12-12T03:47:43.758Z,100960.38
2018-12-12T03:48:49.377Z,100965.14
2018-12-12T03:49:55.022Z,100963.85
2018-12-12T03:51:00.689Z,100961.65
2018-12-12T03:52:06.011Z,100959.51
2018-12-12T03:53:11.647Z,100961.24
2018-12-12T03:54:17.288Z,100962.06
2018-12-12T03:55:23.006Z,100957.67
2018-12-12T03:56:28.677Z,100964.11
2018-12-12T03:57:34.135Z,100956.73
2018-12-12T03:58:39.754Z,100960.30
2018-12-12T03:59:45.393Z,100955.13
2018-12-12T04:00:51.053Z,100957.29
2018-12-12T04:01:56.696Z,100958.16
2018-12-12T04:03:02.360Z,100965.45
2018-12-12T04:04:07.961Z,100957.71
2018-12-12T04:05:13.620Z,100959.85
2018-12-12T04:06:19.237Z,100960.35
2018-12-12T04:07:24.880Z,100959.43
2018-12-12T04:08:30.531Z,100960.31
2018-12-12T04:09:36.181Z,100960.80
2018-12-12T04:10:41.860Z,100969.04
2018-12-12T04:11:47.649Z,100962.53
2018-12-12T04:12:53.316Z,100972.02
2018-12-12T04:14:00.067Z,100965.97
2018-12-12T04:15:05.367Z,100968.09
2018-12-12T04:16:11.024Z,100963.75
2018-12-12T04:17:16.647Z,100963.72
2018-12-12T04:18:22.296Z,100971.55
2018-12-12T04:19:27.892Z,100967.19
2018-12-12T04:20:33.552Z,100973.20
2018-12-12T04:21:39.208Z,100971.42
2018-12-12T04:22:44.862Z,100971.02
2018-12-12T04:23:50.501Z,100970.62
2018-12-12T04:24:55.935Z,100972.80
2018-12-12T04:26:01.552Z,100966.72
2018-12-12T04:27:07.317Z,100972.30
2018-12-12T04:28:13.185Z,100969.31
2018-12-12T04:29:18.812Z,100972.27
2018-12-12T04:30:24.484Z,100971.08
2018-12-12T04:31:30.119Z,100968.97
2018-12-12T04:32:35.789Z,100973.23
2018-12-12T04:33:41.392Z,100972.44
2018-12-12T04:34:47.045Z,100970.64
2018-12-12T04:35:52.712Z,100978.02
2018-12-12T04:36:58.332Z,100972.39
2018-12-12T04:38:04.931Z,100977.56
2018-12-12T04:39:10.618Z,100977.21
2018-12-12T04:40:16.225Z,100977.20
2018-12-12T04:41:22.091Z,100973.70
2018-12-12T04:42:27.701Z,100975.84
2018-12-12T04:43:33.333Z,100973.72
2018-12-12T04:44:38.924Z,100973.69
2018-12-12T04:45:44.557Z,100974.58
2018-12-12T04:46:50.197Z,100974.55
2018-12-12T04:47:55.938Z,100978.05
2018-12-12T04:49:01.575Z,100982.37
2018-12-12T04:50:06.937Z,100982.86
2018-12-12T04:51:12.641Z,100986.30
2018-12-12T04:52:18.331Z,100979.77
2018-12-12T04:53:23.951Z,100976.75
2018-12-12T04:54:29.618Z,100984.58
2018-12-12T04:55:35.614Z,100976.33
2018-12-12T04:56:41.519Z,100980.25
2018-12-12T04:57:46.991Z,100981.95
2018-12-12T04:58:52.415Z,100976.32
2018-12-12T04:59:58.087Z,100976.73
2018-12-12T05:01:03.757Z,100981.92
2018-12-12T05:02:09.147Z,100972.06
2018-12-12T05:03:14.849Z,100977.20
2018-12-12T05:04:20.520Z,100973.78
2018-12-12T05:05:26.147Z,100978.55
2018-12-12T05:06:31.789Z,100975.06
2018-12-12T05:07:37.491Z,100981.56
2018-12-12T05:08:43.197Z,100977.28
2018-12-12T05:09:49.257Z,100985.48
2018-12-12T05:10:54.905Z,100978.56
2018-12-12T05:12:00.652Z,100972.53
2018-12-12T05:13:06.349Z,100979.87
2018-12-12T05:14:12.994Z,100981.19
2018-12-12T05:15:18.635Z,100978.15
2018-12-12T05:16:24.298Z,100985.48
2018-12-12T05:17:30.096Z,100981.61
2018-12-12T05:18:36.369Z,100984.21
2018-12-12T05:19:42.055Z,100982.05
2018-12-12T05:20:47.730Z,100982.89
2018-12-12T05:21:54.489Z,100977.72
2018-12-12T05:23:01.472Z,100983.77
2018-12-12T05:24:07.123Z,100980.73
2018-12-12T05:25:13.765Z,100978.17
2018-12-12T05:26:19.487Z,100979.03
2018-12-12T05:27:25.185Z,100982.92
2018-12-12T05:28:30.799Z,100977.75
2018-12-12T05:29:36.557Z,100983.78
2018-12-12T05:30:42.166Z,100982.48
2018-12-12T05:31:47.846Z,100981.19
2018-12-12T05:32:53.580Z,100984.21
2018-12-12T05:34:00.468Z,100984.22
2018-12-12T05:35:05.778Z,100989.82
2018-12-12T05:36:11.460Z,100990.27
2018-12-12T05:37:17.158Z,100983.78
2018-12-12T05:38:22.830Z,100988.54
2018-12-12T05:39:29.322Z,100991.56
2018-12-12T05:40:36.104Z,100990.27
2018-12-12T05:41:41.932Z,100995.88
2018-12-12T05:42:47.363Z,100988.55
2018-12-12T05:43:57.567Z,100994.59
2018-12-12T05:45:00.541Z,100990.70
2018-12-12T05:46:07.582Z,100995.87
2018-12-12T05:47:13.292Z,100992.86
2018-12-12T05:48:20.284Z,100992.41
2018-12-12T05:49:25.948Z,100992.41
2018-12-12T05:50:32.202Z,100993.30
2018-12-12T05:51:37.891Z,101003.20
2018-12-12T05:52:43.586Z,101000.17
2018-12-12T05:53:49.248Z,100999.76
2018-12-12T05:54:54.872Z,100999.75
2018-12-12T05:56:02.574Z,100999.31
2018-12-12T05:57:06.856Z,101001.04
2018-12-12T05:58:12.528Z,100999.34
2018-12-12T05:59:18.348Z,100998.47
2018-12-12T06:00:26.393Z,100997.16
2018-12-12T06:01:32.663Z,101000.17
2018-12-12T06:02:38.530Z,100994.56
2018-12-12T06:03:45.276Z,101004.94
2018-12-12T06:04:50.884Z,100998.47
2018-12-12T06:05:57.128Z,101000.19
2018-12-12T06:07:02.781Z,101012.72
2018-12-12T06:08:09.124Z,101007.11
2018-12-12T06:09:14.820Z,101011.84
2018-12-12T06:10:21.212Z,101010.55
2018-12-12T06:11:27.237Z,101007.11
2018-12-12T06:12:33.092Z,101009.69
2018-12-12T06:13:38.864Z,101012.69
2018-12-12T06:14:44.484Z,101014.42
2018-12-12T06:15:50.100Z,101015.30
2018-12-12T06:16:56.746Z,101010.98
2018-12-12T06:18:02.464Z,101016.59
2018-12-12T06:19:09.221Z,101015.28
2018-12-12T06:20:14.625Z,101013.13
2018-12-12T06:21:22.151Z,101013.98
2018-12-12T06:22:27.584Z,101019.61
2018-12-12T06:23:34.108Z,101018.30
2018-12-12T06:24:39.669Z,101020.48
2018-12-12T06:25:46.639Z,101025.63
2018-12-12T06:26:53.021Z,101020.04
2018-12-12T06:27:58.646Z,101018.33
2018-12-12T06:29:03.667Z,101021.34
2018-12-12T06:30:08.964Z,101020.03
2018-12-12T06:31:14.676Z,101027.39
2018-12-12T06:32:20.802Z,101031.69
2018-12-12T06:33:26.500Z,101028.25
2018-12-12T06:34:32.256Z,101029.98
2018-12-12T06:35:37.943Z,101034.72
2018-12-12T06:36:43.577Z,101032.55
2018-12-12T06:37:49.620Z,101034.70
2018-12-12T06:38:57.008Z,101030.83
2018-12-12T06:40:02.720Z,101032.98
2018-12-12T06:41:08.362Z,101038.59
2018-12-12T06:42:14.038Z,101041.64
2018-12-12T06:43:21.685Z,101033.42
2018-12-12T06:44:27.433Z,101043.36
2018-12-12T06:45:33.130Z,101039.47
2018-12-12T06:46:38.764Z,101041.61
2018-12-12T06:47:44.733Z,101035.16
2018-12-12T06:48:50.445Z,101042.04
2018-12-12T06:49:56.075Z,101043.34
2018-12-12T06:51:01.774Z,101045.95
2018-12-12T06:52:07.378Z,101042.92
2018-12-12T06:53:13.053Z,101049.41
2018-12-12T06:54:18.652Z,101043.36
2018-12-12T06:55:24.288Z,101048.52
2018-12-12T06:56:29.908Z,101038.59
2018-12-12T06:57:35.559Z,101048.55
2018-12-12T06:58:41.192Z,101045.50
2018-12-12T06:59:46.638Z,101043.80
2018-12-12T07:00:52.316Z,101049.40
2018-12-12T07:01:58.118Z,101047.23
2018-12-12T07:03:03.851Z,101049.38
2018-12-12T07:04:09.496Z,101050.27
2018-12-12T07:05:15.283Z,101042.50
2018-12-12T07:06:21.557Z,101054.56
2018-12-12T07:07:28.347Z,101051.13
2018-12-12T07:08:35.299Z,101058.46
2018-12-12T07:09:44.515Z,101057.59
2018-12-12T07:10:50.737Z,101051.55
2018-12-12T07:11:56.512Z,101054.58
2018-12-12T07:13:03.373Z,101055.00
2018-12-12T07:14:11.937Z,101058.48
2018-12-12T07:15:17.539Z,101056.31
2018-12-12T07:16:23.262Z,101058.45
2018-12-12T07:17:30.328Z,101060.20
2018-12-12T07:18:37.128Z,101062.34
2018-12-12T07:19:45.184Z,101063.64
2018-12-12T07:20:51.082Z,101069.23
2018-12-12T07:21:57.830Z,101068.82
2018-12-12T07:23:04.659Z,101070.97
2018-12-12T07:24:11.300Z,101073.99
2018-12-12T07:25:17.049Z,101067.10
2018-12-12T07:26:23.803Z,101070.97
2018-12-12T07:27:31.078Z,101069.67
2018-12-12T07:28:37.809Z,101072.26
2018-12-12T07:29:44.665Z,101076.14
2018-12-12T07:30:51.334Z,101070.55
2018-12-12T07:31:57.948Z,101077.03
2018-12-12T07:33:04.037Z,101075.72
2018-12-12T07:34:10.934Z,101080.90
2018-12-12T07:35:17.778Z,101076.16
2018-12-12T07:36:24.673Z,101081.34
2018-12-12T07:37:31.475Z,101089.98
2018-12-12T07:38:37.975Z,101089.56
2018-12-12T07:39:45.271Z,101087.39
2018-12-12T07:40:51.757Z,101092.58
2018-12-12T07:41:58.184Z,101089.54
2018-12-12T07:43:05.334Z,101089.09
2018-12-12T07:44:15.056Z,101096.45
2018-12-12T07:45:21.333Z,101097.77
2018-12-12T07:46:30.429Z,101096.47
2018-12-12T07:47:36.640Z,101096.45
2018-12-12T07:48:42.457Z,101092.56
2018-12-12T07:49:50.223Z,101097.33
2018-12-12T07:50:58.112Z,101101.20
2018-12-12T07:52:04.285Z,101098.19
2018-12-12T07:53:11.153Z,101095.16
2018-12-12T07:54:18.333Z,101097.73
2018-12-12T07:55:25.824Z,101095.59
2018-12-12T07:56:31.573Z,101092.58
2018-12-12T07:57:37.195Z,101104.22
2018-12-12T07:58:43.107Z,101099.03
2018-12-12T07:59:48.950Z,101099.49
2018-12-12T08:00:54.653Z,101098.61
2018-12-12T08:02:00.814Z,101110.70
2018-12-12T08:03:06.677Z,101109.84
2018-12-12T08:04:12.595Z,101106.80
2018-12-12T08:05:20.547Z,101109.40
2018-12-12T08:06:27.570Z,101110.27
2018-12-12T08:07:34.215Z,101112.42
2018-12-12T08:08:42.158Z,101109.42
2018-12-12T08:09:48.972Z,101108.13
2018-12-12T08:10:54.756Z,101112.42
2018-12-12T08:12:01.420Z,101107.67
2018-12-12T08:13:08.522Z,101114.58
2018-12-12T08:14:15.458Z,101116.76
2018-12-12T08:15:22.492Z,101118.48
2018-12-12T08:16:30.000Z,101118.48
2018-12-12T08:17:36.308Z,101118.91
2018-12-12T08:18:41.717Z,101115.45
2018-12-12T08:19:47.351Z,101119.34
2018-12-12T08:20:52.973Z,101121.09
2018-12-12T08:21:58.657Z,101123.24
2018-12-12T08:23:04.491Z,101122.38
2018-12-12T08:24:12.656Z,101124.09
2018-12-12T08:25:19.022Z,101124.94
2018-12-12T08:26:25.242Z,101122.78
2018-12-12T08:27:34.064Z,101125.81
2018-12-12T08:28:40.829Z,101124.11
2018-12-12T08:29:49.165Z,101125.81
2018-12-12T08:30:57.688Z,101126.25
2018-12-12T08:32:05.856Z,101132.72
2018-12-12T08:33:15.045Z,101128.83
2018-12-12T08:34:21.227Z,101129.27
2018-12-12T08:35:28.119Z,101138.36
2018-12-12T08:36:34.820Z,101143.97
2018-12-12T08:37:41.161Z,101143.97
2018-12-12T08:38:47.380Z,101146.97
2018-12-12T08:39:54.298Z,101143.11
2018-12-12T08:41:01.925Z,101150.42
2018-12-12T08:42:08.717Z,101152.18
2018-12-12T08:43:15.507Z,101151.30
2018-12-12T08:44:22.606Z,101151.30
2018-12-12T08:45:28.844Z,101154.76
2018-12-12T08:46:35.998Z,101153.47
2018-12-12T08:47:42.925Z,101151.31
2018-12-12T08:48:50.552Z,101158.64
2018-12-12T08:49:56.707Z,101156.50
2018-12-12T08:51:02.354Z,101162.10
2018-12-12T08:52:07.294Z,101159.07
2018-12-12T08:53:12.907Z,101164.27
2018-12-12T08:54:18.548Z,101162.95
2018-12-12T08:55:25.293Z,101159.95
2018-12-12T08:56:31.662Z,101159.52
2018-12-12T08:57:37.284Z,101162.53
2018-12-12T08:58:42.942Z,101160.79
2018-12-12T08:59:48.600Z,101164.28
2018-12-12T09:00:54.249Z,101159.52
2018-12-12T09:01:59.900Z,101161.67
2018-12-12T09:03:05.572Z,101162.09
2018-12-12T09:04:11.225Z,101161.25
2018-12-12T09:05:16.912Z,101167.73
2018-12-12T09:06:22.582Z,101165.56
2018-12-12T09:07:28.313Z,101169.43
2018-12-12T09:08:33.965Z,101172.03
2018-12-12T09:09:39.620Z,101174.21
2018-12-12T09:10:45.298Z,101176.81
2018-12-12T09:11:50.940Z,101173.34
2018-12-12T09:12:56.583Z,101175.08
2018-12-12T09:14:02.213Z,101172.91
2018-12-12T09:15:07.197Z,101173.33
2018-12-12T09:16:12.807Z,101175.94
2018-12-12T09:17:18.430Z,101172.91
2018-12-12T09:18:24.063Z,101176.37
2018-12-12T09:19:29.719Z,101174.22
2018-12-12T09:20:35.486Z,101177.67
2018-12-12T09:21:41.154Z,101177.64
2018-12-12T09:22:46.852Z,101178.10
2018-12-12T09:23:52.502Z,101174.20
2018-12-12T09:24:58.213Z,101176.34
2018-12-12T09:26:03.818Z,101178.52
2018-12-12T09:27:09.474Z,101176.35
2018-12-12T09:28:15.118Z,101174.20
2018-12-12T09:29:20.802Z,101179.38
2018-12-12T09:30:26.427Z,101173.33
2018-12-12T09:31:32.072Z,101176.80
2018-12-12T09:32:38.085Z,101177.67
2018-12-12T09:33:43.701Z,101181.54
2018-12-12T09:34:49.337Z,101177.23
2018-12-12T09:35:55.004Z,101178.95
2018-12-12T09:37:00.693Z,101181.12
2018-12-12T09:38:06.350Z,101184.12
2018-12-12T09:39:12.001Z,101183.28
2018-12-12T09:40:17.668Z,101189.74
2018-12-12T09:41:23.330Z,101192.80
2018-12-12T09:42:28.987Z,101184.56
2018-12-12T09:43:34.614Z,101184.99
2018-12-12T09:44:40.494Z,101185.87
2018-12-12T09:45:46.240Z,101183.70
2018-12-12T09:46:51.928Z,101188.47
2018-12-12T09:47:57.221Z,101181.11
2018-12-12T09:49:02.885Z,101185.86
2018-12-12T09:50:08.192Z,101188.44
2018-12-12T09:51:13.820Z,101191.48
2018-12-12T09:52:19.469Z,101186.73
2018-12-12T09:53:25.146Z,101194.95
2018-12-12T09:54:30.770Z,101193.66
2018-12-12T09:55:36.094Z,101191.91
2018-12-12T09:56:41.752Z,101191.47
2018-12-12T09:57:47.430Z,101192.77
2018-12-12T09:58:53.115Z,101199.69
2018-12-12T09:59:58.772Z,101197.52
2018-12-12T10:01:04.435Z,101205.75
2018-12-12T10:02:09.722Z,101198.39
2018-12-12T10:03:15.318Z,101204.44
2018-12-12T10:04:20.956Z,101205.74
2018-12-12T10:05:26.624Z,101199.70
2018-12-12T10:06:32.246Z,101207.05
2018-12-12T10:07:37.918Z,101206.61
2018-12-12T10:08:43.812Z,101205.31
2018-12-12T10:09:49.454Z,101205.73
2018-12-12T10:10:55.092Z,101204.43
2018-12-12T10:12:00.706Z,101203.58
2018-12-12T10:13:07.253Z,101209.20
2018-12-12T10:14:14.490Z,101201.00
2018-12-12T10:15:22.881Z,101207.05
2018-12-12T10:16:30.062Z,101206.18
2018-12-12T10:17:38.307Z,101204.87
2018-12-12T10:18:45.422Z,101204.02
2018-12-12T10:19:52.634Z,101201.41
2018-12-12T10:20:59.685Z,101203.56
2018-12-12T10:22:07.193Z,101209.19
2018-12-12T10:23:13.516Z,101204.03
2018-12-12T10:24:18.906Z,101205.76
2018-12-12T10:25:24.536Z,101205.73
2018-12-12T10:26:30.167Z,101198.40
2018-12-12T10:27:35.793Z,101200.14
2018-12-12T10:28:41.992Z,101194.94
2018-12-12T10:29:47.601Z,101201.84
2018-12-12T10:30:54.065Z,101196.25
2018-12-12T10:32:00.951Z,101196.25
2018-12-12T10:33:07.374Z,101188.91
2018-12-12T10:34:13.416Z,101189.34
2018-12-12T10:35:19.075Z,101189.34
2018-12-12T10:36:24.830Z,101194.94
2018-12-12T10:37:30.458Z,101191.50
2018-12-12T10:38:36.211Z,101195.78
2018-12-12T10:39:42.427Z,101194.06
2018-12-12T10:40:49.309Z,101197.09
2018-12-12T10:41:55.278Z,101194.50
2018-12-12T10:43:00.937Z,101196.67
2018-12-12T10:44:06.222Z,101200.13
2018-12-12T10:45:11.845Z,101189.77
2018-12-12T10:46:17.474Z,101195.79
2018-12-12T10:47:23.093Z,101189.74
2018-12-12T10:48:28.716Z,101189.77
2018-12-12T10:49:34.329Z,101183.71
2018-12-12T10:50:40.105Z,101188.89
2018-12-12T10:51:46.389Z,101191.91
2018-12-12T10:52:51.069Z,101195.36
2018-12-12T10:53:56.698Z,101193.64
2018-12-12T10:55:02.359Z,101193.19
2018-12-12T10:56:08.517Z,101191.91
2018-12-12T10:57:13.809Z,101188.47
2018-12-12T10:58:19.461Z,101193.64
2018-12-12T10:59:25.088Z,101186.72
2018-12-12T11:00:31.359Z,101187.16
2018-12-12T11:01:44.196Z,101180.24
2018-12-12T11:02:51.135Z,101184.53
2018-12-12T11:03:57.791Z,101188.44
2018-12-12T11:05:04.160Z,101182.83
2018-12-12T11:06:10.157Z,101178.08
2018-12-12T11:07:16.861Z,101180.23
2018-12-12T11:08:23.897Z,101180.67
2018-12-12T11:09:31.196Z,101175.93
2018-12-12T11:10:37.296Z,101187.60
2018-12-12T11:11:45.357Z,101178.10
2018-12-12T11:12:53.557Z,101172.90
2018-12-12T11:13:59.651Z,101177.22
2018-12-12T11:15:06.029Z,101180.26
2018-12-12T11:16:13.664Z,101177.23
2018-12-12T11:17:20.121Z,101181.53
2018-12-12T11:18:26.908Z,101184.56
2018-12-12T11:19:34.776Z,101182.84
2018-12-12T11:20:42.443Z,101177.64
2018-12-12T11:21:49.175Z,101184.54
2018-12-12T11:22:55.969Z,101182.38
2018-12-12T11:24:01.633Z,101181.98
2018-12-12T11:25:07.752Z,101183.27
2018-12-12T11:26:15.788Z,101183.27
2018-12-12T11:27:22.355Z,101181.96
2018-12-12T11:28:28.919Z,101186.30
2018-12-12T11:29:35.212Z,101191.48
2018-12-12T11:30:40.832Z,101184.55
2018-12-12T11:31:48.047Z,101185.86
2018-12-12T11:32:54.933Z,101181.55
2018-12-12T11:34:01.098Z,101183.72
2018-12-12T11:35:07.126Z,101183.26
2018-12-12T11:36:13.728Z,101186.30
2018-12-12T11:37:20.093Z,101191.90
2018-12-12T11:38:25.973Z,101191.90
2018-12-12T11:39:32.607Z,101188.90
2018-12-12T11:40:38.986Z,101190.19
2018-12-12T11:41:44.709Z,101187.16
2018-12-12T11:42:50.315Z,101184.57
2018-12-12T11:43:56.851Z,101186.30
2018-12-12T11:45:04.906Z,101184.58
2018-12-12T11:46:10.788Z,101187.59
2018-12-12T11:47:16.637Z,101188.02
2018-12-12T11:48:22.436Z,101189.77
2018-12-12T11:49:28.303Z,101190.59
2018-12-12T11:50:33.911Z,101193.22
2018-12-12T11:51:39.629Z,101189.31
2018-12-12T11:52:45.289Z,101184.55
2018-12-12T11:53:50.956Z,101188.03
2018-12-12T11:54:57.215Z,101186.30
2018-12-12T11:56:05.819Z,101181.55
2018-12-12T11:57:11.469Z,101186.28
2018-12-12T11:58:18.442Z,101183.70
2018-12-12T11:59:24.949Z,101185.41
2018-12-12T12:00:30.900Z,101178.08
2018-12-12T12:01:37.824Z,101181.96
2018-12-12T12:02:44.759Z,101190.16
2018-12-12T12:03:56.595Z,101190.17
2018-12-12T12:04:59.068Z,101184.98
2018-12-12T12:06:05.895Z,101188.45
2018-12-12T12:07:12.746Z,101187.56
2018-12-12T12:08:18.375Z,101181.51
2018-12-12T12:09:24.021Z,101189.28
2018-12-12T12:10:30.717Z,101185.41
2018-12-12T12:11:38.733Z,101185.84
2018-12-12T12:12:44.904Z,101180.66
2018-12-12T12:13:50.569Z,101184.10
2018-12-12T12:14:57.555Z,101185.84
2018-12-12T12:16:03.163Z,101189.26
2018-12-12T12:17:08.864Z,101187.09
2018-12-12T12:18:14.629Z,101186.69
2018-12-12T12:19:21.088Z,101183.22
2018-12-12T12:20:27.982Z,101185.39
2018-12-12T12:21:35.025Z,101185.83
2018-12-12T12:22:41.475Z,101185.41
2018-12-12T12:23:47.230Z,101187.13
2018-12-12T12:24:53.941Z,101186.22
2018-12-12T12:26:01.435Z,101187.52
2018-12-12T12:27:07.181Z,101183.65
2018-12-12T12:28:12.872Z,101179.36
2018-12-12T12:29:19.633Z,101180.65
2018-12-12T12:30:27.260Z,101183.25
2018-12-12T12:31:32.914Z,101182.81
2018-12-12T12:32:39.274Z,101185.41